createdAt,value
2023-12-11T00:00:50.822Z,48.30
2023-12-11T00:03:39.345Z,48.15
2023-12-11T00:06:08.585Z,48.39
2023-12-11T00:08:37.334Z,48.46
2023-12-11T00:11:06.135Z,48.47
2023-12-11T00:13:34.597Z,48.33
2023-12-11T00:16:03.338Z,48.39
2023-12-11T00:18:31.926Z,48.10
2023-12-11T00:21:01.834Z,47.97
2023-12-11T00:23:30.240Z,47.96
2023-12-11T00:25:59.279Z,48.46
2023-12-11T00:28:27.677Z,48.02
2023-12-11T00:30:56.527Z,48.27
2023-12-11T00:33:25.009Z,48.43
2023-12-11T00:35:53.874Z,48.25
2023-12-11T00:38:22.216Z,48.61
2023-12-11T00:40:51.883Z,48.22
2023-12-11T00:43:20.445Z,48.44
2023-12-11T00:45:49.205Z,48.61
2023-12-11T00:48:17.723Z,48.60
2023-12-11T00:50:46.546Z,48.76
2023-12-11T00:53:14.927Z,48.41
2023-12-11T00:55:43.636Z,48.53
2023-12-11T00:58:12.043Z,48.68
2023-12-11T01:00:40.862Z,48.72
2023-12-11T01:03:09.233Z,48.69
2023-12-11T01:05:38.290Z,48.47
2023-12-11T01:08:07.527Z,48.89
2023-12-11T01:10:36.336Z,48.61
2023-12-11T01:13:04.794Z,48.55
2023-12-11T01:15:33.489Z,49.06
2023-12-11T01:18:01.968Z,48.82
2023-12-11T01:20:30.692Z,48.68
2023-12-11T01:22:59.175Z,48.78
2023-12-11T01:25:28.218Z,48.81
2023-12-11T01:27:56.684Z,48.73
2023-12-11T01:30:25.767Z,48.69
2023-12-11T01:32:54.277Z,48.91
2023-12-11T01:35:23.083Z,48.84
2023-12-11T01:37:51.529Z,48.91
2023-12-11T01:40:20.406Z,48.84
2023-12-11T01:42:48.758Z,49.00
2023-12-11T01:45:17.545Z,49.04
2023-12-11T01:47:46.152Z,49.09
2023-12-11T01:50:15.765Z,48.70
2023-12-11T01:52:44.439Z,48.87
2023-12-11T01:55:13.307Z,48.82
2023-12-11T01:57:42.071Z,48.71
2023-12-11T02:00:11.595Z,48.71
2023-12-11T02:02:39.928Z,48.97
2023-12-11T02:05:08.765Z,48.72
2023-12-11T02:07:39.813Z,48.58
2023-12-11T02:10:09.189Z,48.99
2023-12-11T02:12:37.675Z,48.74
2023-12-11T02:15:06.984Z,48.62
2023-12-11T02:17:35.921Z,48.87
2023-12-11T02:20:06.359Z,48.70
2023-12-11T02:22:34.786Z,48.93
2023-12-11T02:25:05.689Z,48.68
2023-12-11T02:27:34.324Z,48.70
2023-12-11T02:30:03.022Z,48.70
2023-12-11T03:42:56.855Z,48.53
2023-12-11T03:45:25.633Z,48.77
2023-12-11T03:47:54.171Z,48.63
2023-12-11T03:50:22.945Z,48.42
2023-12-11T03:52:51.410Z,48.55
2023-12-11T03:55:20.240Z,48.46
2023-12-11T03:57:48.729Z,48.73
2023-12-11T04:00:18.346Z,48.30
2023-12-11T04:02:46.743Z,48.21
2023-12-11T04:05:18.758Z,48.44
2023-12-11T04:07:47.213Z,48.25
2023-12-11T04:10:15.984Z,48.19
2023-12-11T04:12:44.701Z,48.24
2023-12-11T04:15:13.872Z,48.27
2023-12-11T04:17:44.391Z,48.14
2023-12-11T04:20:13.284Z,48.23
2023-12-11T04:22:41.688Z,48.24
2023-12-11T04:25:10.850Z,48.16
2023-12-11T04:27:39.426Z,48.26
2023-12-11T04:30:11.172Z,48.10
2023-12-11T04:32:39.859Z,48.14
2023-12-11T04:35:09.051Z,48.15
2023-12-11T04:37:37.561Z,48.29
2023-12-11T04:40:06.967Z,48.12
2023-12-11T04:42:35.378Z,48.29
2023-12-11T04:45:04.562Z,48.24
2023-12-11T04:47:33.126Z,48.37
2023-12-11T04:50:02.054Z,48.03
2023-12-11T04:52:30.519Z,48.43
2023-12-11T04:54:59.774Z,48.18
2023-12-11T04:57:28.568Z,48.30
2023-12-11T04:59:57.494Z,48.36
2023-12-11T05:02:25.955Z,48.33
2023-12-11T05:04:54.773Z,48.29
2023-12-11T05:07:23.220Z,48.47
2023-12-11T05:09:52.031Z,48.25
2023-12-11T05:12:20.493Z,48.15
2023-12-11T05:14:49.224Z,48.20
2023-12-11T05:17:17.736Z,48.17
2023-12-11T05:19:46.686Z,48.08
2023-12-11T05:22:15.179Z,48.11
2023-12-11T05:24:44.405Z,47.93
2023-12-11T05:27:13.418Z,48.14
2023-12-11T05:29:42.581Z,47.99
2023-12-11T05:32:15.541Z,47.49
2023-12-11T05:34:44.507Z,47.43
2023-12-11T05:37:13.037Z,47.64
2023-12-11T05:39:47.339Z,47.19
2023-12-11T05:42:23.162Z,47.03
2023-12-11T05:44:51.958Z,47.03
2023-12-11T05:47:21.836Z,46.93
2023-12-11T05:49:50.642Z,46.83
2023-12-11T05:52:19.142Z,46.39
2023-12-11T05:54:47.956Z,46.44
2023-12-11T05:57:16.438Z,46.05
2023-12-11T05:59:49.010Z,46.26
2023-12-11T06:02:17.411Z,45.96
2023-12-11T06:04:46.181Z,45.96
2023-12-11T06:07:14.784Z,46.03
2023-12-11T06:09:43.791Z,45.73
2023-12-11T06:12:12.370Z,45.44
2023-12-11T06:14:43.909Z,45.42
2023-12-11T06:17:13.931Z,45.17
2023-12-11T06:19:46.163Z,45.38
2023-12-11T06:22:15.005Z,45.13
2023-12-11T06:24:43.921Z,44.77
2023-12-11T06:27:12.667Z,44.56
2023-12-11T06:29:41.581Z,44.70
2023-12-11T06:32:09.993Z,44.75
2023-12-11T06:34:39.379Z,44.91
2023-12-11T06:37:07.919Z,44.52
2023-12-11T06:39:38.235Z,44.77
2023-12-11T06:42:06.943Z,44.66
2023-12-11T06:44:37.340Z,44.80
2023-12-11T06:47:05.889Z,45.07
2023-12-11T06:49:35.733Z,44.90
2023-12-11T06:52:04.524Z,44.79
2023-12-11T06:54:33.423Z,45.20
2023-12-11T06:57:02.023Z,45.16
2023-12-11T06:59:31.490Z,45.13
2023-12-11T07:02:00.031Z,44.92
2023-12-11T07:04:29.233Z,44.92
2023-12-11T07:06:57.902Z,45.32
2023-12-11T07:09:28.092Z,45.41
2023-12-11T07:11:56.583Z,45.45
2023-12-11T07:14:25.658Z,45.68
2023-12-11T07:16:54.099Z,45.58
2023-12-11T07:19:22.988Z,45.75
2023-12-11T07:21:51.623Z,45.82
2023-12-11T07:24:20.405Z,45.69
2023-12-11T07:26:48.897Z,45.79
2023-12-11T07:29:17.653Z,45.82
2023-12-11T07:31:46.021Z,46.17
2023-12-11T07:34:15.539Z,46.06
2023-12-11T07:36:44.090Z,46.12
2023-12-11T07:39:12.892Z,46.32
2023-12-11T07:41:41.433Z,46.24
2023-12-11T07:44:10.152Z,46.44
2023-12-11T07:46:41.521Z,46.72
2023-12-11T07:49:15.328Z,46.30
2023-12-11T07:51:44.872Z,46.15
2023-12-11T07:54:13.808Z,46.06
2023-12-11T07:56:42.321Z,46.31
2023-12-11T07:59:11.921Z,46.23
2023-12-11T08:01:40.628Z,46.32
2023-12-11T08:04:09.714Z,46.21
2023-12-11T08:06:43.285Z,46.09
2023-12-11T08:09:12.759Z,46.54
2023-12-11T08:11:41.227Z,46.46
2023-12-11T08:14:09.875Z,46.46
2023-12-11T08:16:38.092Z,46.43
2023-12-11T08:19:06.841Z,46.55
2023-12-11T08:21:35.170Z,46.58
2023-12-11T08:24:04.219Z,46.83
2023-12-11T08:26:32.599Z,46.62
2023-12-11T08:29:01.213Z,47.03
2023-12-11T08:31:29.506Z,46.99
2023-12-11T08:33:58.278Z,46.73
2023-12-11T08:36:26.573Z,46.91
2023-12-11T08:38:55.164Z,46.95
2023-12-11T08:41:23.845Z,47.23
2023-12-11T08:43:52.589Z,47.02
2023-12-11T08:46:21.088Z,46.99
2023-12-11T08:48:50.593Z,47.05
2023-12-11T08:51:19.859Z,47.07
2023-12-11T08:53:48.683Z,47.32
2023-12-11T08:56:20.877Z,47.36
2023-12-11T08:58:49.468Z,47.29
2023-12-11T09:01:19.077Z,47.38
2023-12-11T09:03:47.934Z,47.38
2023-12-11T09:06:16.342Z,47.67
2023-12-11T09:08:45.274Z,47.40
2023-12-11T09:11:13.597Z,47.48
2023-12-11T09:13:42.614Z,47.53
2023-12-11T09:16:10.964Z,47.50
2023-12-11T09:18:39.861Z,47.60
2023-12-11T09:21:08.258Z,47.67
2023-12-11T09:23:37.805Z,47.83
2023-12-11T09:26:06.242Z,47.73
2023-12-11T09:28:41.575Z,47.61
2023-12-11T09:31:25.026Z,47.43
2023-12-11T09:33:53.882Z,47.82
2023-12-11T09:36:22.326Z,47.71
2023-12-11T09:38:50.907Z,47.59
2023-12-11T09:41:19.965Z,47.56
2023-12-11T09:43:50.824Z,47.56
2023-12-11T09:46:20.410Z,47.58
2023-12-11T09:48:49.872Z,47.96
2023-12-11T09:51:18.517Z,47.76
2023-12-11T09:53:48.528Z,47.79
2023-12-11T09:56:17.526Z,47.82
2023-12-11T09:58:46.394Z,47.89
2023-12-11T10:01:14.800Z,48.05
2023-12-11T10:03:43.632Z,47.71
2023-12-11T10:06:11.956Z,47.56
2023-12-11T10:08:44.671Z,47.33
2023-12-11T10:11:19.121Z,47.72
2023-12-11T10:13:49.924Z,47.92
2023-12-11T10:16:31.209Z,47.86
2023-12-11T10:19:02.216Z,47.82
2023-12-11T10:21:41.215Z,47.51
2023-12-11T10:24:15.027Z,47.66
2023-12-11T10:26:48.436Z,47.72
2023-12-11T10:29:23.240Z,47.80
2023-12-11T10:31:53.113Z,47.72
2023-12-11T10:34:41.491Z,47.85
2023-12-11T10:37:11.806Z,47.82
2023-12-11T10:39:53.190Z,47.99
2023-12-11T10:42:21.603Z,47.92
2023-12-11T10:44:54.249Z,47.99
2023-12-11T10:47:24.300Z,47.85
2023-12-11T10:49:54.093Z,47.75
2023-12-11T10:52:22.475Z,47.94
2023-12-11T10:54:51.065Z,48.13
2023-12-11T10:57:21.288Z,47.98
2023-12-11T10:59:52.667Z,48.04
2023-12-11T11:02:24.050Z,47.84
2023-12-11T11:04:52.971Z,47.88
2023-12-11T11:07:28.593Z,47.98
2023-12-11T11:10:06.333Z,47.82
2023-12-11T11:12:45.775Z,48.18
2023-12-11T11:15:21.679Z,48.10
2023-12-11T11:18:11.866Z,48.03
2023-12-11T11:20:40.883Z,47.90
2023-12-11T11:23:15.468Z,47.71
2023-12-11T11:25:55.210Z,47.64
2023-12-11T11:28:39.914Z,47.65
2023-12-11T11:31:19.446Z,46.94
2023-12-11T11:33:57.072Z,46.49
2023-12-11T11:36:48.643Z,46.52
2023-12-11T11:39:17.089Z,46.29
2023-12-11T11:41:45.932Z,45.65
2023-12-11T11:44:16.130Z,45.45
2023-12-11T11:47:01.367Z,45.54
2023-12-11T11:49:31.162Z,45.75
2023-12-11T11:52:00.649Z,45.81
2023-12-11T11:54:30.811Z,45.78
2023-12-11T11:56:59.411Z,45.64
2023-12-11T11:59:27.871Z,45.85
2023-12-11T12:01:58.211Z,46.24
2023-12-11T12:04:30.291Z,46.67
2023-12-11T12:07:04.094Z,46.58
2023-12-11T12:09:35.220Z,47.17
2023-12-11T12:12:05.923Z,47.29
2023-12-11T12:14:34.351Z,47.52
2023-12-11T12:17:12.349Z,47.91
2023-12-11T12:19:40.966Z,47.75
2023-12-11T12:22:14.640Z,48.00
2023-12-11T12:24:50.186Z,48.42
2023-12-11T12:27:24.756Z,48.39
2023-12-11T12:29:53.414Z,48.98
2023-12-11T12:32:22.694Z,48.96
2023-12-11T12:34:53.168Z,48.86
2023-12-11T12:37:23.517Z,49.28
2023-12-11T12:39:57.249Z,49.23
2023-12-11T12:42:32.106Z,49.24
2023-12-11T12:45:01.124Z,49.62
2023-12-11T12:47:30.233Z,49.53
2023-12-11T12:49:59.225Z,49.55
2023-12-11T12:52:30.242Z,49.57
2023-12-11T12:54:58.678Z,49.70
2023-12-11T12:57:27.355Z,49.70
2023-12-11T12:59:55.723Z,49.74
2023-12-11T13:02:24.383Z,49.75
2023-12-11T13:04:54.413Z,49.69
2023-12-11T13:07:25.019Z,49.93
2023-12-11T13:09:53.545Z,49.86
2023-12-11T13:12:22.712Z,50.12
2023-12-11T13:14:51.174Z,49.90
2023-12-11T13:17:19.769Z,49.97
2023-12-11T13:19:48.124Z,50.11
2023-12-11T13:22:17.498Z,50.09
2023-12-11T13:24:45.973Z,49.97
2023-12-11T13:27:14.625Z,50.41
2023-12-11T13:29:42.834Z,49.95
2023-12-11T13:32:14.424Z,50.18
2023-12-11T13:34:43.018Z,50.05
2023-12-11T13:37:11.971Z,50.14
2023-12-11T13:39:40.438Z,50.15
2023-12-11T13:42:09.113Z,50.13
2023-12-11T13:44:38.109Z,50.28
2023-12-11T13:47:06.875Z,50.42
2023-12-11T13:49:35.236Z,50.12
2023-12-11T13:52:05.246Z,50.13
2023-12-11T13:54:33.685Z,50.58
2023-12-11T13:57:02.357Z,50.38
2023-12-11T13:59:30.553Z,50.34
2023-12-11T14:02:01.714Z,50.45
2023-12-11T14:04:30.460Z,50.77
2023-12-11T14:06:59.375Z,50.67
2023-12-11T14:09:32.652Z,50.60
2023-12-11T14:12:02.324Z,50.60
2023-12-11T14:14:30.777Z,50.91
2023-12-11T14:16:59.734Z,50.56
2023-12-11T14:19:28.633Z,50.58
2023-12-11T14:21:57.342Z,50.71
2023-12-11T14:24:27.370Z,50.58
2023-12-11T14:26:57.581Z,50.78
2023-12-11T14:29:26.400Z,50.89
2023-12-11T14:31:55.095Z,50.85
2023-12-11T14:34:23.758Z,50.61
2023-12-11T14:36:52.638Z,50.78
2023-12-11T14:39:21.801Z,50.84
2023-12-11T14:41:50.695Z,50.90
2023-12-11T14:44:19.598Z,50.71
2023-12-11T14:46:48.432Z,50.88
2023-12-11T14:49:16.815Z,51.19
2023-12-11T14:51:45.615Z,51.05
2023-12-11T14:54:14.967Z,50.77
2023-12-11T14:56:44.356Z,50.74
2023-12-11T14:59:12.749Z,51.04
2023-12-11T15:01:41.686Z,50.64
2023-12-11T15:04:10.159Z,50.86
2023-12-11T15:06:39.064Z,50.47
2023-12-11T15:09:08.363Z,50.49
2023-12-11T15:11:37.288Z,50.57
2023-12-11T15:14:09.943Z,50.52
2023-12-11T15:16:40.849Z,50.53
2023-12-11T15:19:10.303Z,50.76
2023-12-11T15:21:39.347Z,50.58
2023-12-11T15:24:07.953Z,50.70
2023-12-11T15:26:36.629Z,50.74
2023-12-11T15:29:08.671Z,50.61
2023-12-11T15:31:37.335Z,50.56
2023-12-11T15:34:05.870Z,50.67
2023-12-11T15:36:34.607Z,51.08
2023-12-11T15:39:03.460Z,50.79
2023-12-11T15:41:32.112Z,50.89
2023-12-11T15:44:00.527Z,50.60
2023-12-11T15:46:29.722Z,50.83
2023-12-11T15:48:59.831Z,50.52
2023-12-11T15:51:28.802Z,50.30
2023-12-11T15:53:57.249Z,50.15
2023-12-11T15:56:26.463Z,50.29
2023-12-11T15:58:54.790Z,50.15
2023-12-11T16:01:23.519Z,50.18
2023-12-11T16:03:52.125Z,50.09
2023-12-11T16:06:21.036Z,50.02
2023-12-11T16:08:49.487Z,50.05
2023-12-11T16:11:18.551Z,49.78
2023-12-11T16:13:47.154Z,49.56
2023-12-11T16:16:17.845Z,49.73
2023-12-11T16:18:48.300Z,49.57
2023-12-11T16:21:17.064Z,49.30
2023-12-11T16:23:45.443Z,49.15
2023-12-11T16:26:17.493Z,49.10
2023-12-11T16:28:45.773Z,49.01
2023-12-11T16:31:23.238Z,48.72
2023-12-11T16:33:52.259Z,48.73
2023-12-11T16:36:20.888Z,48.69
2023-12-11T16:38:49.259Z,48.60
2023-12-11T16:41:26.248Z,48.16
2023-12-11T16:43:55.190Z,48.30
2023-12-11T16:46:24.014Z,47.90
2023-12-11T16:48:52.634Z,47.80
2023-12-11T16:51:21.512Z,48.11
2023-12-11T16:53:49.816Z,47.69
2023-12-11T16:56:18.947Z,47.88
2023-12-11T16:58:47.478Z,47.72
2023-12-11T17:01:16.298Z,47.87
2023-12-11T17:03:45.606Z,48.10
2023-12-11T17:06:16.439Z,48.13
2023-12-11T17:08:45.645Z,47.96
2023-12-11T17:11:14.566Z,47.86
2023-12-11T17:13:43.333Z,47.88
2023-12-11T17:16:12.122Z,47.61
2023-12-11T17:18:44.482Z,47.96
2023-12-11T17:21:22.019Z,47.96
2023-12-11T17:23:58.333Z,47.86
2023-12-11T17:26:27.832Z,48.26
2023-12-11T17:28:56.624Z,47.99
2023-12-11T17:31:25.773Z,47.96
2023-12-11T17:33:54.335Z,48.46
2023-12-11T17:36:23.076Z,48.61
2023-12-11T17:38:51.477Z,48.47
2023-12-11T17:41:20.266Z,48.55
2023-12-11T17:43:48.809Z,48.48
2023-12-11T17:46:17.601Z,48.45
2023-12-11T17:48:47.293Z,48.52
2023-12-11T17:51:15.980Z,48.09
2023-12-11T17:53:44.344Z,47.97
2023-12-11T17:56:16.513Z,47.76
2023-12-11T17:58:44.911Z,47.86
2023-12-11T18:01:14.400Z,47.45
2023-12-11T18:03:42.982Z,47.42
2023-12-11T18:06:17.354Z,47.56
2023-12-11T18:08:46.026Z,47.39
2023-12-11T18:11:14.900Z,47.27
2023-12-11T18:13:43.412Z,47.37
2023-12-11T18:16:12.456Z,47.28
2023-12-11T18:18:40.994Z,47.42
2023-12-11T18:21:09.889Z,47.52
2023-12-11T18:23:38.478Z,47.30
2023-12-11T18:26:11.949Z,47.72
2023-12-11T18:28:40.309Z,47.64
2023-12-11T18:31:09.127Z,48.12
2023-12-11T18:33:37.669Z,48.03
2023-12-11T18:36:06.767Z,48.14
2023-12-11T18:38:35.006Z,48.64
2023-12-11T18:41:04.344Z,48.34
2023-12-11T18:43:32.758Z,48.85
2023-12-11T18:46:01.560Z,49.01
2023-12-11T18:48:30.023Z,49.36
2023-12-11T18:50:58.897Z,49.36
2023-12-11T18:53:27.197Z,49.44
2023-12-11T18:56:02.319Z,49.53
2023-12-11T18:58:31.039Z,49.42
2023-12-11T19:01:01.228Z,49.63
2023-12-11T19:03:30.038Z,50.15
2023-12-11T19:05:58.900Z,50.15
2023-12-11T19:08:27.267Z,50.11
2023-12-11T19:10:56.005Z,50.00
2023-12-11T19:13:27.175Z,50.32
2023-12-11T19:15:55.946Z,50.43
2023-12-11T19:18:25.991Z,50.50
2023-12-11T19:20:55.617Z,50.42
2023-12-11T19:23:23.973Z,50.53
2023-12-11T19:25:53.176Z,50.94
2023-12-11T19:28:21.977Z,50.84
2023-12-11T19:30:51.162Z,51.11
2023-12-11T19:33:19.583Z,51.26
2023-12-11T19:35:48.405Z,51.23
2023-12-11T19:38:17.884Z,51.51
2023-12-11T19:40:46.459Z,51.33
2023-12-11T19:43:14.775Z,51.58
2023-12-11T19:45:43.897Z,51.44
2023-12-11T19:48:12.480Z,51.80
2023-12-11T19:50:41.076Z,51.49
2023-12-11T19:53:10.276Z,51.23
2023-12-11T19:55:41.915Z,51.42
2023-12-11T19:58:10.377Z,51.35
2023-12-11T20:00:39.152Z,51.13
2023-12-11T20:03:07.486Z,50.82
2023-12-11T20:05:36.257Z,50.73
2023-12-11T20:08:04.756Z,50.85
2023-12-11T20:10:33.445Z,50.81
2023-12-11T20:13:01.781Z,51.37
2023-12-11T20:15:30.437Z,51.20
2023-12-11T20:17:59.937Z,51.37
2023-12-11T20:20:28.733Z,51.49
2023-12-11T20:22:57.086Z,51.55
2023-12-11T20:25:25.759Z,51.63
2023-12-11T20:27:53.996Z,51.65
2023-12-11T20:30:22.506Z,51.72
2023-12-11T20:32:51.061Z,51.71
2023-12-11T20:35:19.738Z,51.78
2023-12-11T20:37:47.896Z,51.88
2023-12-11T20:40:16.836Z,51.92
2023-12-11T20:42:45.547Z,52.04
2023-12-11T20:45:14.797Z,51.83
2023-12-11T20:47:43.953Z,52.21
2023-12-11T20:50:13.107Z,51.94
2023-12-11T20:52:42.752Z,52.47
2023-12-11T20:55:12.158Z,52.22
2023-12-11T20:57:40.568Z,52.23
2023-12-11T21:00:11.817Z,52.38
2023-12-11T21:02:40.905Z,52.20
2023-12-11T21:05:11.261Z,52.36
2023-12-11T21:07:42.677Z,52.12
2023-12-11T21:10:12.327Z,52.26
2023-12-11T21:12:41.116Z,52.17
2023-12-11T21:15:10.176Z,52.08
2023-12-11T21:17:41.733Z,52.47
2023-12-11T21:20:11.462Z,52.36
2023-12-11T21:22:40.931Z,51.95
2023-12-11T21:25:10.507Z,52.03
2023-12-11T21:27:39.524Z,51.92
2023-12-11T21:30:10.657Z,52.10
2023-12-11T21:32:43.940Z,52.01
2023-12-11T21:35:14.245Z,52.21
2023-12-11T21:37:42.820Z,51.92
2023-12-11T21:40:12.425Z,52.13
2023-12-11T21:42:40.644Z,51.82
2023-12-11T21:45:09.557Z,52.27
2023-12-11T21:47:38.497Z,51.81
2023-12-11T21:50:10.710Z,52.06
2023-12-11T21:52:39.418Z,52.14
2023-12-11T21:55:08.421Z,52.03
2023-12-11T21:57:37.641Z,51.59
2023-12-11T22:00:07.926Z,51.71
2023-12-11T22:02:40.994Z,51.63
2023-12-11T22:05:11.104Z,51.89
2023-12-11T22:07:39.521Z,51.99
2023-12-11T22:10:08.851Z,51.85
2023-12-11T22:12:37.491Z,51.48
2023-12-11T22:15:07.061Z,51.78
2023-12-11T22:17:35.614Z,51.89
2023-12-11T22:20:04.768Z,51.81
2023-12-11T22:22:33.230Z,51.44
2023-12-11T22:25:01.958Z,51.52
2023-12-11T22:27:30.715Z,51.41
2023-12-11T22:29:59.442Z,51.64
2023-12-11T22:32:27.866Z,51.17
2023-12-11T22:34:58.562Z,51.29
2023-12-11T22:37:27.044Z,51.09
2023-12-11T22:39:56.145Z,50.88
2023-12-11T22:42:24.487Z,50.97
2023-12-11T22:44:53.136Z,51.25
2023-12-11T22:47:21.476Z,50.87
2023-12-11T22:49:50.185Z,51.08
2023-12-11T22:52:18.636Z,50.90
2023-12-11T22:54:48.903Z,50.75
2023-12-11T22:57:17.227Z,50.77
2023-12-11T22:59:45.789Z,50.93
2023-12-11T23:02:14.099Z,50.70
2023-12-11T23:04:42.836Z,50.55
2023-12-11T23:07:11.333Z,50.65
2023-12-11T23:09:39.892Z,50.65
2023-12-11T23:12:08.232Z,50.56
2023-12-11T23:14:37.173Z,50.26
2023-12-11T23:17:05.995Z,50.61
2023-12-11T23:19:35.388Z,50.54
2023-12-11T23:22:04.122Z,50.49
2023-12-11T23:24:32.771Z,50.58
2023-12-11T23:27:01.074Z,50.24
2023-12-11T23:29:29.788Z,50.28
2023-12-11T23:31:58.113Z,50.35
2023-12-11T23:34:26.740Z,50.49
2023-12-11T23:36:55.000Z,50.45
2023-12-11T23:39:23.649Z,50.15
2023-12-11T23:41:51.977Z,50.07
2023-12-11T23:44:21.639Z,50.21
2023-12-11T23:46:49.999Z,50.33
2023-12-11T23:49:18.691Z,50.24
2023-12-11T23:51:47.088Z,49.90
2023-12-11T23:54:15.722Z,50.41
2023-12-11T23:56:44.111Z,50.06
2023-12-11T23:59:12.756Z,50.37
